Bookmark and Share
Track history (hours):
 

Sibirskiy-2112

Last reported at 2013-Nov-10 17:21 UTC. Time now 2014-Apr-16 07:39 UTC.
Position N 41°29' E 029°39'.
Warning: this ship's position is months out of date.

Length 129 m; draft 3.4 m.

Type: Cargo ship. MMSI: 273342420.

NotesDate/timePositionNaut miles runAvg speedWind from/ knotsBaromVisibWave heightAir tempDewpointWater temp
2013-Nov-10 17:21N 41°29' E 029°39'6 7.9
2013-Nov-10 16:33N 41°25' E 029°33'8 7.9
2013-Nov-10 15:33N 41°21' E 029°24'8 7.5
2013-Nov-10 14:33N 41°17' E 029°15'21 6.9
2013-Nov-10 11:31N 40°60' E 028°60'5 0.3
2013-Nov-09 18:30N 40°57' E 028°55'0 0.0
2013-Nov-09 16:23N 40°57' E 028°55'0 0.0
2013-Nov-09 14:33N 40°57' E 028°55'0 0.0
2013-Nov-09 09:28N 40°57' E 028°55'0 0.0
2013-Nov-09 08:26N 40°57' E 028°55'0 0.0
2013-Nov-09 07:22N 40°57' E 028°55'33 2.2
2013-Nov-08 16:06N 40°25' E 029°05'0 0.0
2013-Nov-08 14:12N 40°25' E 029°05'0 0.0
2013-Nov-08 13:30N 40°25' E 029°05'0 0.0
2013-Nov-08 12:24N 40°25' E 029°05'0 0.0
2013-Nov-08 11:30N 40°25' E 029°05'0 0.0
2013-Nov-08 10:30N 40°25' E 029°05'0 0.0
2013-Nov-08 09:30N 40°25' E 029°05'0 0.0
2013-Nov-08 08:24N 40°25' E 029°05'0 0.0
2013-Nov-08 07:12N 40°25' E 029°05'0 0.0
2013-Nov-06 11:18N 40°25' E 029°05'0 0.0
2013-Nov-06 10:30N 40°25' E 029°05'0 0.0
2013-Nov-06 09:29N 40°25' E 029°05'1 1.0
2013-Nov-06 08:33N 40°25' E 029°04'  

Dump ship's entire track history

sailing weather and tide predictions

Sibirskiy-2112 — UBXE8 — position and weather